createdAt,value
2018-09-20T00:01:19.238Z,20.50
2018-09-20T00:03:47.467Z,20.70
2018-09-20T00:06:18.721Z,20.38
2018-09-20T00:08:47.215Z,20.61
2018-09-20T00:11:16.293Z,20.06
2018-09-20T00:13:42.920Z,20.17
2018-09-20T00:16:14.313Z,19.95
2018-09-20T00:18:43.121Z,20.28
2018-09-20T00:21:13.479Z,20.38
2018-09-20T00:23:43.494Z,20.18
2018-09-20T00:28:45.061Z,20.48
2018-09-20T00:33:44.709Z,20.30
2018-09-20T00:38:43.997Z,19.89
2018-09-20T00:41:12.660Z,19.76
2018-09-20T00:46:14.721Z,19.96
2018-09-20T00:48:43.214Z,19.99
2018-09-20T00:51:11.870Z,19.92
2018-09-20T00:53:41.316Z,19.93
2018-09-20T00:56:09.077Z,19.85
2018-09-20T00:58:38.394Z,19.99
2018-09-20T01:01:05.654Z,20.02
2018-09-20T01:03:35.164Z,20.07
2018-09-20T01:06:03.324Z,19.92
2018-09-20T01:08:31.121Z,19.70
2018-09-20T01:10:58.999Z,19.90
2018-09-20T01:13:26.292Z,20.03
2018-09-20T01:15:57.186Z,20.21
2018-09-20T01:18:24.804Z,20.07
2018-09-20T01:20:52.029Z,20.25
2018-09-20T01:23:20.532Z,20.25
2018-09-20T01:25:49.585Z,20.36
2018-09-20T01:28:18.008Z,20.22
2018-09-20T01:30:46.545Z,19.86
2018-09-20T01:33:18.389Z,19.62
2018-09-20T01:35:46.102Z,19.68
2018-09-20T01:38:15.988Z,19.74
2018-09-20T01:40:44.062Z,19.89
2018-09-20T01:45:44.618Z,19.80
2018-09-20T01:48:13.154Z,19.83
2018-09-20T01:50:41.902Z,20.05
2018-09-20T01:53:10.991Z,19.95
2018-09-20T01:55:39.336Z,19.61
2018-09-20T01:58:07.655Z,19.64
2018-09-20T02:00:35.504Z,19.49
2018-09-20T02:03:04.164Z,19.54
2018-09-20T02:05:33.536Z,19.50
2018-09-20T02:08:03.366Z,19.40
2018-09-20T02:10:32.087Z,19.40
2018-09-20T02:13:02.970Z,19.62
2018-09-20T02:15:34.793Z,20.03
2018-09-20T02:18:06.691Z,19.85
2018-09-20T02:20:34.693Z,19.87
2018-09-20T02:23:03.033Z,19.39
2018-09-20T02:25:36.891Z,19.29
2018-09-20T02:33:08.236Z,19.49
2018-09-20T02:35:37.049Z,19.60
2018-09-20T02:40:40.192Z,19.17
2018-09-20T02:43:09.888Z,19.55
2018-09-20T02:45:39.385Z,19.56
2018-09-20T02:53:12.856Z,19.48
2018-09-20T02:55:42.005Z,19.34
2018-09-20T02:58:17.460Z,19.45
2018-09-20T03:00:46.269Z,19.68
2018-09-20T03:03:15.971Z,19.66
2018-09-20T03:05:47.116Z,19.47
2018-09-20T03:08:15.495Z,19.65
2018-09-20T03:10:44.398Z,19.46
2018-09-20T03:15:48.207Z,19.57
2018-09-20T03:18:16.523Z,19.45
2018-09-20T03:20:43.995Z,19.48
2018-09-20T03:23:12.924Z,19.76
2018-09-20T03:25:39.720Z,19.88
2018-09-20T03:28:06.568Z,19.90
2018-09-20T03:30:33.478Z,19.90
2018-09-20T03:33:00.767Z,20.07
2018-09-20T03:35:29.696Z,19.80
2018-09-20T03:37:57.318Z,19.88
2018-09-20T03:40:24.655Z,19.57
2018-09-20T03:42:51.950Z,19.17
2018-09-20T03:45:19.856Z,19.29
2018-09-20T03:47:46.460Z,19.19
2018-09-20T03:50:15.630Z,19.21
2018-09-20T03:52:42.304Z,19.41
2018-09-20T03:55:10.017Z,19.52
2018-09-20T03:57:39.309Z,19.40
2018-09-20T04:00:06.049Z,19.49
2018-09-20T04:02:32.715Z,19.51
2018-09-20T04:04:59.505Z,19.44
2018-09-20T04:07:26.205Z,19.48
2018-09-20T04:09:52.798Z,19.52
2018-09-20T04:12:19.686Z,19.46
2018-09-20T04:14:46.860Z,19.14
2018-09-20T04:17:13.599Z,19.34
2018-09-20T04:19:40.574Z,19.71
2018-09-20T04:22:07.244Z,19.66
2018-09-20T04:24:39.878Z,19.67
2018-09-20T04:27:08.704Z,19.53
2018-09-20T04:29:36.270Z,19.56
2018-09-20T04:32:03.757Z,19.80
2018-09-20T04:34:30.426Z,19.63
2018-09-20T04:36:57.027Z,19.47
2018-09-20T04:39:23.709Z,19.50
2018-09-20T04:41:50.505Z,19.72
2018-09-20T04:44:17.593Z,19.56
2018-09-20T04:46:45.056Z,19.35
2018-09-20T04:49:11.812Z,19.30
2018-09-20T04:51:38.842Z,19.30
2018-09-20T04:54:05.588Z,19.33
2018-09-20T04:56:32.598Z,19.30
2018-09-20T04:59:03.564Z,19.53
2018-09-20T05:01:30.124Z,19.15
2018-09-20T05:03:57.730Z,19.03
2018-09-20T05:06:26.065Z,19.29
2018-09-20T05:08:55.714Z,19.37
2018-09-20T05:11:24.143Z,19.35
2018-09-20T05:13:52.781Z,19.28
2018-09-20T05:16:19.499Z,19.46
2018-09-20T05:18:47.915Z,19.59
2018-09-20T05:21:15.254Z,19.49
2018-09-20T05:23:42.001Z,19.48
2018-09-20T05:26:09.127Z,19.30
2018-09-20T05:28:36.472Z,19.49
2018-09-20T05:31:03.922Z,19.40
2018-09-20T05:33:30.780Z,19.60
2018-09-20T05:36:00.104Z,19.70
2018-09-20T05:38:26.882Z,19.57
2018-09-20T05:43:25.734Z,19.64
2018-09-20T05:45:53.292Z,19.66
2018-09-20T05:48:21.622Z,19.59
2018-09-20T05:50:49.733Z,19.92
2018-09-20T05:53:16.620Z,20.36
2018-09-20T05:55:43.703Z,20.23
2018-09-20T05:58:10.551Z,19.92
2018-09-20T06:00:37.249Z,20.15
2018-09-20T06:03:04.107Z,20.25
2018-09-20T06:05:32.656Z,20.83
2018-09-20T06:07:59.534Z,21.05
2018-09-20T06:10:27.236Z,21.39
2018-09-20T06:15:26.176Z,21.48
2018-09-20T06:17:54.228Z,21.91
2018-09-20T06:20:21.469Z,21.86
2018-09-20T06:22:50.689Z,21.88
2018-09-20T06:25:18.156Z,22.09
2018-09-20T06:27:45.517Z,22.08
2018-09-20T06:30:13.060Z,22.13
2018-09-20T06:32:40.593Z,22.17
2018-09-20T06:35:07.592Z,22.01
2018-09-20T06:37:34.639Z,22.35
2018-09-20T06:40:02.190Z,22.47
2018-09-20T06:42:31.142Z,22.34
2018-09-20T06:47:29.834Z,22.43
2018-09-20T06:49:56.745Z,22.67
2018-09-20T06:52:26.934Z,23.19
2018-09-20T06:54:54.493Z,23.11
2018-09-20T06:57:21.260Z,23.30
2018-09-20T06:59:48.429Z,23.58
2018-09-20T07:02:17.330Z,23.73
2018-09-20T07:04:45.719Z,23.65
2018-09-20T07:07:12.504Z,23.82
2018-09-20T07:09:40.972Z,24.11
2018-09-20T07:14:35.332Z,24.28
2018-09-20T07:19:35.850Z,24.34
2018-09-20T07:22:06.160Z,24.24
2018-09-20T07:24:33.548Z,24.18
2018-09-20T07:29:33.537Z,24.14
2018-09-20T07:32:01.346Z,23.96
2018-09-20T07:34:32.240Z,24.46
2018-09-20T07:37:00.577Z,24.62
2018-09-20T07:39:28.097Z,24.91
2018-09-20T07:41:55.482Z,24.91
2018-09-20T07:44:22.229Z,24.94
2018-09-20T07:46:50.490Z,25.11
2018-09-20T07:51:49.983Z,25.39
2018-09-20T07:54:16.609Z,25.52
2018-09-20T07:56:43.313Z,25.54
2018-09-20T07:59:11.017Z,25.49
2018-09-20T08:01:37.737Z,25.38
2018-09-20T08:04:11.184Z,25.56
2018-09-20T08:06:38.108Z,25.92
2018-09-20T08:09:06.399Z,25.92
2018-09-20T08:11:36.590Z,25.93
2018-09-20T08:14:03.335Z,25.96
2018-09-20T08:16:32.677Z,26.22
2018-09-20T08:19:02.118Z,26.06
2018-09-20T08:21:30.890Z,26.23
2018-09-20T08:24:00.622Z,26.52
2018-09-20T08:26:28.976Z,26.34
2018-09-20T08:29:00.183Z,26.77
2018-09-20T08:31:26.982Z,26.82
2018-09-20T08:33:55.925Z,26.62
2018-09-20T08:36:31.816Z,26.93
2018-09-20T08:39:01.665Z,27.16
2018-09-20T08:46:36.094Z,27.38
2018-09-20T08:49:05.207Z,27.64
2018-09-20T08:51:31.742Z,27.68
2018-09-20T08:54:01.129Z,27.85
2018-09-20T08:56:36.407Z,27.80
2018-09-20T08:59:08.955Z,28.09
2018-09-20T09:01:41.011Z,27.86
2018-09-20T09:04:15.189Z,27.88
2018-09-20T09:06:41.769Z,27.81
2018-09-20T09:09:11.856Z,28.56
2018-09-20T09:11:41.964Z,29.01
2018-09-20T09:14:08.656Z,29.02
2018-09-20T09:16:40.644Z,29.02
2018-09-20T09:19:11.266Z,28.95
2018-09-20T09:21:40.366Z,28.86
2018-09-20T09:24:11.516Z,29.08
2018-09-20T09:26:46.661Z,29.23
2018-09-20T09:29:13.432Z,29.29
2018-09-20T09:31:43.278Z,29.78
2018-09-20T09:34:12.998Z,30.07
2018-09-20T09:36:39.819Z,29.98
2018-09-20T09:39:06.502Z,29.86
2018-09-20T09:41:34.294Z,29.84
2018-09-20T09:44:03.618Z,30.13
2018-09-20T09:46:30.341Z,30.27
2018-09-20T09:49:01.885Z,30.10
2018-09-20T09:51:28.499Z,30.48
2018-09-20T09:54:00.670Z,30.53
2018-09-20T09:56:31.675Z,30.40
2018-09-20T09:59:00.300Z,30.47
2018-09-20T10:01:26.846Z,30.60
2018-09-20T10:03:56.107Z,30.65
2018-09-20T10:06:22.902Z,30.93
2018-09-20T10:08:53.881Z,31.11
2018-09-20T10:11:20.468Z,31.35
2018-09-20T10:13:47.333Z,31.62
2018-09-20T10:16:16.153Z,31.30
2018-09-20T10:18:48.669Z,31.40
2018-09-20T10:21:16.480Z,31.27
2018-09-20T10:23:45.992Z,31.46
2018-09-20T10:26:16.034Z,31.53
2018-09-20T10:28:43.817Z,31.39
2018-09-20T10:31:10.409Z,31.09
2018-09-20T10:33:40.844Z,31.69
2018-09-20T10:36:07.741Z,31.52
2018-09-20T10:38:35.754Z,31.73
2018-09-20T10:41:08.400Z,31.65
2018-09-20T10:43:36.914Z,31.94
2018-09-20T10:46:03.555Z,32.09
2018-09-20T10:48:31.150Z,32.38
2018-09-20T10:51:03.281Z,32.32
2018-09-20T10:53:33.074Z,32.05
2018-09-20T10:58:33.236Z,32.59
2018-09-20T11:01:05.398Z,32.78
2018-09-20T11:03:41.240Z,33.12
2018-09-20T11:06:15.111Z,33.12
2018-09-20T11:08:48.103Z,32.56
2018-09-20T11:11:23.091Z,32.48
2018-09-20T11:13:57.227Z,32.64
2018-09-20T11:16:23.722Z,32.80
2018-09-20T11:18:50.216Z,33.15
2018-09-20T11:21:16.877Z,33.30
2018-09-20T11:23:50.891Z,33.46
2018-09-20T11:26:17.470Z,33.55
2018-09-20T11:28:45.077Z,33.62
2018-09-20T11:31:13.042Z,32.95
2018-09-20T11:33:39.621Z,32.91
2018-09-20T11:36:06.453Z,31.72
2018-09-20T11:44:19.156Z,32.92
2018-09-20T11:46:45.885Z,33.36
2018-09-20T11:49:12.948Z,33.24
2018-09-20T11:51:46.754Z,33.29
2018-09-20T11:54:20.684Z,33.01
2018-09-20T11:56:47.883Z,33.10
2018-09-20T11:59:25.100Z,33.64
2018-09-20T12:01:51.601Z,34.07
2018-09-20T12:04:20.843Z,34.36
2018-09-20T12:06:47.329Z,34.09
2018-09-20T12:09:17.811Z,33.97
2018-09-20T12:11:44.579Z,33.64
2018-09-20T12:14:16.108Z,33.79
2018-09-20T12:16:42.740Z,34.01
2018-09-20T12:19:11.092Z,34.10
2018-09-20T12:21:41.509Z,33.99
2018-09-20T12:24:11.704Z,34.33
2018-09-20T12:26:38.377Z,34.73
2018-09-20T12:29:09.009Z,34.46
2018-09-20T12:31:41.711Z,34.58
2018-09-20T12:34:12.143Z,34.44
2018-09-20T12:36:44.349Z,33.94
2018-09-20T12:39:17.698Z,33.85
2018-09-20T12:41:48.292Z,33.35
2018-09-20T12:44:22.367Z,33.60
2018-09-20T12:49:29.115Z,34.18
2018-09-20T12:52:01.429Z,33.61
2018-09-20T12:54:28.082Z,33.97
2018-09-20T12:56:58.986Z,33.00
2018-09-20T12:59:25.565Z,32.87
2018-09-20T13:01:53.121Z,33.07
2018-09-20T13:04:22.161Z,32.98
2018-09-20T13:06:48.790Z,32.65
2018-09-20T13:09:15.440Z,32.79
2018-09-20T13:11:42.019Z,33.40
2018-09-20T13:14:08.547Z,33.44
2018-09-20T13:16:41.775Z,33.53
2018-09-20T13:19:08.361Z,33.79
2018-09-20T13:21:40.252Z,33.68
2018-09-20T13:24:07.010Z,33.30
2018-09-20T13:26:34.329Z,32.58
2018-09-20T13:29:01.856Z,32.33
2018-09-20T13:31:36.392Z,32.98
2018-09-20T13:34:03.007Z,33.13
2018-09-20T13:36:29.597Z,32.64
2018-09-20T13:39:01.709Z,33.38
2018-09-20T13:41:28.233Z,33.10
2018-09-20T13:43:56.213Z,33.00
2018-09-20T13:46:30.385Z,33.78
2018-09-20T13:48:57.284Z,33.83
2018-09-20T13:51:33.592Z,33.37
2018-09-20T13:54:00.202Z,33.35
2018-09-20T13:56:36.273Z,33.70
2018-09-20T13:59:10.026Z,34.07
2018-09-20T14:01:43.660Z,34.31
2018-09-20T14:06:48.154Z,34.03
2018-09-20T14:09:25.264Z,34.37
2018-09-20T14:11:59.056Z,34.05
2018-09-20T14:14:25.551Z,34.26
2018-09-20T14:16:52.335Z,34.05
2018-09-20T14:19:27.544Z,34.23
2018-09-20T14:21:54.335Z,34.24
2018-09-20T14:24:30.368Z,33.45
2018-09-20T14:26:56.885Z,33.50
2018-09-20T14:32:19.053Z,32.83
2018-09-20T14:34:45.584Z,32.40
2018-09-20T14:37:12.228Z,32.30
2018-09-20T14:39:38.777Z,32.77
2018-09-20T14:47:37.968Z,33.48
2018-09-20T14:50:09.299Z,33.39
2018-09-20T14:55:23.063Z,33.42
2018-09-20T14:57:57.597Z,33.96
2018-09-20T15:00:24.230Z,33.49
2018-09-20T15:02:57.845Z,33.54
2018-09-20T15:05:24.517Z,32.90
2018-09-20T15:08:00.176Z,33.35
2018-09-20T15:12:59.442Z,32.34
2018-09-20T15:15:28.713Z,32.66
2018-09-20T15:17:55.197Z,33.08
2018-09-20T15:20:22.749Z,33.12
2018-09-20T15:22:49.320Z,32.41
2018-09-20T15:25:15.967Z,32.67
2018-09-20T15:27:47.660Z,32.92
2018-09-20T15:30:19.682Z,32.86
2018-09-20T15:32:47.710Z,32.73
2018-09-20T15:35:14.357Z,32.78
2018-09-20T15:37:40.861Z,32.76
2018-09-20T15:40:07.530Z,32.65
2018-09-20T15:42:41.327Z,32.54
2018-09-20T15:45:08.017Z,32.51
2018-09-20T15:47:41.391Z,32.74
2018-09-20T15:50:12.582Z,32.44
2018-09-20T15:52:45.545Z,32.42
2018-09-20T15:55:15.649Z,32.38
2018-09-20T15:57:47.235Z,32.31
2018-09-20T16:00:13.786Z,32.41
2018-09-20T16:02:43.091Z,32.06
2018-09-20T16:05:10.217Z,31.94
2018-09-20T16:07:44.173Z,31.86
2018-09-20T16:10:11.026Z,31.48
2018-09-20T16:15:13.175Z,30.79
2018-09-20T16:17:49.586Z,30.49
2018-09-20T16:20:25.354Z,30.14
2018-09-20T16:22:58.383Z,30.03
2018-09-20T16:25:25.026Z,30.13
2018-09-20T16:27:51.530Z,30.12
2018-09-20T16:30:18.833Z,29.73
2018-09-20T16:35:27.609Z,29.78
2018-09-20T16:37:54.589Z,29.49
2018-09-20T16:40:21.272Z,29.20
2018-09-20T16:42:48.572Z,28.99
2018-09-20T16:45:23.480Z,28.97
2018-09-20T16:47:51.719Z,28.97
2018-09-20T16:50:20.717Z,29.00
2018-09-20T16:52:47.378Z,28.87
2018-09-20T16:55:17.267Z,28.75
2018-09-20T16:57:45.872Z,28.59
2018-09-20T17:00:12.483Z,28.29
2018-09-20T17:02:39.829Z,27.86
2018-09-20T17:05:11.400Z,27.70
2018-09-20T17:07:38.061Z,27.64
2018-09-20T17:10:07.402Z,27.53
2018-09-20T17:12:35.249Z,27.45
2018-09-20T17:15:01.927Z,27.17
2018-09-20T17:17:28.594Z,27.21
2018-09-20T17:19:59.339Z,27.09
2018-09-20T17:22:25.927Z,26.91
2018-09-20T17:24:53.460Z,26.76
2018-09-20T17:27:20.604Z,26.75
2018-09-20T17:29:50.172Z,26.75
2018-09-20T17:32:18.868Z,26.85
2018-09-20T17:34:45.704Z,26.69
2018-09-20T17:37:14.660Z,26.52
2018-09-20T17:39:41.352Z,26.24
2018-09-20T17:42:08.309Z,26.23
2018-09-20T17:44:38.464Z,26.01
2018-09-20T17:47:08.532Z,25.96
2018-09-20T17:49:35.729Z,26.18
2018-09-20T17:52:06.138Z,26.25
2018-09-20T17:54:33.992Z,25.97
2018-09-20T17:59:35.115Z,25.79
2018-09-20T18:02:02.826Z,25.90
2018-09-20T18:04:31.856Z,25.86
2018-09-20T18:07:03.387Z,25.32
2018-09-20T18:09:32.184Z,25.26
2018-09-20T18:11:59.057Z,25.37
2018-09-20T18:14:25.833Z,25.42
2018-09-20T18:16:56.180Z,25.26
2018-09-20T18:19:26.112Z,25.17
2018-09-20T18:21:56.138Z,25.27
2018-09-20T18:24:22.743Z,25.23
2018-09-20T18:26:52.648Z,25.19
2018-09-20T18:29:20.002Z,25.19
2018-09-20T18:31:46.888Z,24.99
2018-09-20T18:34:13.585Z,25.04
2018-09-20T18:36:40.827Z,25.11
2018-09-20T18:39:09.805Z,25.05
2018-09-20T18:41:36.943Z,24.98
2018-09-20T18:44:03.902Z,24.89
2018-09-20T18:46:33.222Z,24.88
2018-09-20T18:49:01.537Z,24.83
2018-09-20T18:56:33.586Z,24.70
2018-09-20T18:59:00.251Z,24.71
2018-09-20T19:01:33.001Z,24.73
2018-09-20T19:04:02.871Z,24.51
2018-09-20T19:06:32.282Z,24.36
2018-09-20T19:08:59.250Z,24.31
2018-09-20T19:11:29.011Z,24.28
2018-09-20T19:13:55.787Z,24.19
2018-09-20T19:16:22.417Z,24.10
2018-09-20T19:18:49.156Z,23.97
2018-09-20T19:21:17.684Z,23.87
2018-09-20T19:23:44.258Z,23.89
2018-09-20T19:28:44.384Z,23.98
2018-09-20T19:31:10.973Z,24.12
2018-09-20T19:33:40.143Z,23.85
2018-09-20T19:36:07.926Z,24.13
2018-09-20T19:38:35.283Z,23.75
2018-09-20T19:41:01.959Z,23.68
2018-09-20T19:48:32.443Z,23.24
2018-09-20T19:51:01.502Z,23.12
2018-09-20T19:56:02.836Z,23.10
2018-09-20T19:58:30.657Z,23.16
2018-09-20T20:00:59.019Z,23.25
2018-09-20T20:03:26.480Z,23.45
2018-09-20T20:05:53.259Z,23.34
2018-09-20T20:08:20.797Z,23.26
2018-09-20T20:10:47.678Z,23.35
2018-09-20T20:13:16.553Z,23.25
2018-09-20T20:15:43.315Z,23.01
2018-09-20T20:18:09.961Z,22.74
2018-09-20T20:20:39.581Z,22.78
2018-09-20T20:23:06.300Z,22.65
2018-09-20T20:25:32.978Z,22.58
2018-09-20T20:28:00.292Z,22.53
2018-09-20T20:30:27.325Z,22.48
2018-09-20T20:32:54.032Z,22.36
2018-09-20T20:35:21.343Z,22.41
2018-09-20T20:37:48.035Z,22.56
2018-09-20T20:40:14.940Z,22.53
2018-09-20T20:42:41.768Z,22.45
2018-09-20T20:45:10.586Z,22.45
2018-09-20T20:47:37.383Z,22.46
2018-09-20T20:50:04.196Z,22.51
2018-09-20T20:52:32.565Z,22.50
2018-09-20T20:54:59.937Z,22.29
2018-09-20T20:57:26.563Z,22.22
2018-09-20T20:59:53.834Z,22.39
2018-09-20T21:02:23.670Z,22.47
2018-09-20T21:04:52.864Z,22.41
2018-09-20T21:07:19.514Z,22.36
2018-09-20T21:09:47.176Z,22.25
2018-09-20T21:12:16.176Z,22.37
2018-09-20T21:14:42.823Z,22.42
2018-09-20T21:17:11.089Z,22.33
2018-09-20T21:19:38.579Z,22.26
2018-09-20T21:22:06.288Z,22.25
2018-09-20T21:27:09.156Z,22.23
2018-09-20T21:29:36.622Z,22.11
2018-09-20T21:32:03.149Z,22.12
2018-09-20T21:37:02.523Z,22.15
2018-09-20T21:39:30.393Z,22.18
2018-09-20T21:41:56.979Z,22.17
2018-09-20T21:44:24.027Z,22.12
2018-09-20T21:46:50.771Z,22.06
2018-09-20T21:49:18.304Z,21.96
2018-09-20T21:51:45.200Z,22.03
2018-09-20T21:54:12.532Z,22.19
2018-09-20T21:56:40.847Z,21.95
2018-09-20T21:59:08.513Z,21.78
2018-09-20T22:01:35.390Z,21.77
2018-09-20T22:04:02.049Z,21.72
2018-09-20T22:06:28.717Z,21.75
2018-09-20T22:08:55.410Z,21.82
2018-09-20T22:11:22.325Z,21.77
2018-09-20T22:13:51.955Z,21.70
2018-09-20T22:16:18.524Z,21.46
2018-09-20T22:18:45.421Z,21.55
2018-09-20T22:21:13.452Z,21.45
2018-09-20T22:23:40.647Z,21.36
2018-09-20T22:26:07.732Z,21.48
2018-09-20T22:28:35.749Z,21.59
2018-09-20T22:31:04.226Z,21.62
2018-09-20T22:33:30.794Z,21.59
2018-09-20T22:35:57.462Z,21.69
2018-09-20T22:38:24.403Z,21.64
2018-09-20T22:40:51.812Z,21.46
2018-09-20T22:43:18.712Z,21.32
2018-09-20T22:46:20.740Z,21.33
2018-09-20T22:48:48.663Z,21.39
2018-09-20T22:51:15.555Z,21.31
2018-09-20T22:53:42.860Z,21.39
2018-09-20T22:56:10.216Z,21.40
2018-09-20T22:58:36.773Z,21.47
2018-09-20T23:01:04.069Z,21.43
2018-09-20T23:03:32.073Z,21.38
2018-09-20T23:05:58.903Z,21.30
2018-09-20T23:08:25.576Z,21.18
2018-09-20T23:10:52.319Z,21.29
2018-09-20T23:13:19.251Z,21.34
2018-09-20T23:15:47.150Z,21.38
2018-09-20T23:18:15.253Z,21.27
2018-09-20T23:20:44.664Z,21.18
2018-09-20T23:23:12.025Z,21.09
2018-09-20T23:25:39.080Z,20.88
2018-09-20T23:28:07.576Z,21.02
2018-09-20T23:30:34.704Z,21.11
2018-09-20T23:33:01.880Z,20.92
2018-09-20T23:35:28.965Z,20.94
2018-09-20T23:37:55.603Z,20.88
2018-09-20T23:40:22.296Z,20.99
2018-09-20T23:42:48.875Z,21.03
2018-09-20T23:45:15.883Z,21.07
2018-09-20T23:47:43.408Z,20.99
2018-09-20T23:50:10.912Z,20.91
2018-09-20T23:52:37.707Z,20.85
